Terminal Aerodrome Forecast
Issued by NWS Charleston, SC

Home | Current Version | Previous Version | Text Only | Print | Product List | Glossary On
Versions: 1 2 3 4 5 6 7 8 9 10 11 12 13 14 15 16 17
814
FTUS42 KCHS 241739
TAFSAV
TAF
KSAV 241739Z 2418/2518 22011KT P6SM SCT030 BKN250
     FM242000 20011KT P6SM VCSH SCT035 BKN060
     FM250200 21007KT P6SM SCT020 BKN150=

USA.gov is the U.S. government's official web portal to all federal, state and local government web resources and services.